Time;durP1;ratioP1;P1;durP2;ratioP2;P2;SDS_P1;SDS_P2;PMS_P1;PMS_P2;Temp;Humidity;BMP_temperature;BMP_pressure;BME280_temperature;BME280_humidity;BME280_pressure;Samples;Min_cycle;Max_cycle;Signal;HPM_P1;HPM_P2
2023/03/20 00:01:53;;;;;;;0.00;0.00;;;;;;;;;;5082140;28;20031;-76
2023/03/20 00:04:24;;;;;;;0.85;0.85;;;8.00;99.90;;;;;;5085170;28;20260;-76
2023/03/20 00:06:50;;;;;;;31.67;7.03;;;;;;;;;;5087117;28;20335;-76
2023/03/20 00:09:16;;;;;;;0.52;0.52;;;7.90;99.90;;;;;;5089598;28;20153;-76
2023/03/20 00:11:54;;;;;;;3.30;3.13;;;7.90;99.90;;;;;;5072413;28;20050;-76
2023/03/20 00:14:23;;;;;;;0.00;0.00;;;8.10;99.90;;;;;;5089287;28;20051;-76
2023/03/20 00:16:49;;;;;;;0.10;0.10;;;;;;;;;;5075710;28;20031;-76
2023/03/20 00:19:24;;;;;;;0.10;0.10;;;7.70;99.90;;;;;;5097102;28;20024;-76
2023/03/20 00:21:52;;;;;;;0.10;0.10;;;7.80;99.90;;;;;;5087018;28;20013;-76
2023/03/20 00:24:18;;;;;;;0.00;0.00;;;7.70;99.90;;;;;;5089009;28;20421;-76
2023/03/20 00:26:45;;;;;;;0.10;0.10;;;7.70;99.90;;;;;;5090981;28;20031;-75
2023/03/20 00:29:33;;;;;;;0.10;0.10;;;;;;;;;;5074593;28;20119;-76
2023/03/20 00:32:00;;;;;;;0.10;0.10;;;7.70;99.90;;;;;;5071419;28;20016;-76
2023/03/20 00:34:31;;;;;;;0.10;0.10;;;7.60;99.90;;;;;;5089540;28;20066;-75
2023/03/20 00:36:58;;;;;;;0.00;0.00;;;;;;;;;;5091427;28;20086;-76
2023/03/20 00:39:25;;;;;;;0.10;0.10;;;7.60;99.90;;;;;;5088742;28;20115;-76
2023/03/20 00:42:01;;;;;;;0.10;0.10;;;7.60;99.90;;;;;;5088912;28;20019;-76
2023/03/20 00:44:42;;;;;;;0.00;0.00;;;7.60;99.90;;;;;;5088695;28;20038;-76
2023/03/20 00:47:21;;;;;;;0.10;0.10;;;7.50;99.90;;;;;;5089599;28;20018;-76
2023/03/20 00:49:49;;;;;;;0.10;0.10;;;7.50;99.90;;;;;;5088421;28;20051;-75
2023/03/20 00:52:18;;;;;;;0.10;0.10;;;7.50;99.90;;;;;;5088945;28;20475;-76
2023/03/20 00:54:44;;;;;;;0.10;0.10;;;;;;;;;;5087569;28;20107;-75
2023/03/20 00:57:23;;;;;;;0.10;0.10;;;7.50;99.90;;;;;;5069463;28;20043;-75
2023/03/20 00:59:53;;;;;;;0.08;0.08;;;7.50;99.90;;;;;;5089692;28;20016;-76
2023/03/20 01:02:22;;;;;;;0.08;0.08;;;7.60;99.90;;;;;;5090056;28;20020;-76
2023/03/20 01:04:48;;;;;;;0.10;0.10;;;7.60;99.90;;;;;;5082264;28;20016;-76
2023/03/20 01:07:15;;;;;;;0.00;0.00;;;7.60;99.90;;;;;;5081037;28;20047;-77
2023/03/20 01:09:41;;;;;;;0.10;0.10;;;7.50;99.90;;;;;;5062386;28;20028;-74
2023/03/20 01:12:09;;;;;;;0.10;0.10;;;7.60;99.90;;;;;;5079891;28;20020;-76
2023/03/20 01:14:35;;;;;;;0.10;0.10;;;8.30;99.90;;;;;;5062100;28;20240;-76
2023/03/20 01:17:00;;;;;;;0.47;0.47;;;7.50;99.90;;;;;;5080703;28;20111;-76
2023/03/20 01:19:26;;;;;;;4.15;3.83;;;7.40;99.90;;;;;;5067716;28;20028;-76
2023/03/20 01:21:52;;;;;;;0.15;0.15;;;7.40;99.90;;;;;;5072581;28;20058;-76
2023/03/20 01:24:18;;;;;;;0.10;0.10;;;7.30;99.90;;;;;;5091272;28;20085;-76
2023/03/20 01:26:45;;;;;;;0.10;0.10;;;7.30;99.90;;;;;;5093542;28;20016;-76
2023/03/20 01:29:20;;;;;;;0.10;0.10;;;7.20;99.90;;;;;;5077746;28;20020;-75
2023/03/20 01:31:47;;;;;;;0.10;0.10;;;7.20;99.90;;;;;;5096253;28;20251;-76
2023/03/20 01:34:15;;;;;;;0.10;0.10;;;8.10;99.90;;;;;;5096354;28;20030;-76
2023/03/20 01:36:47;;;;;;;0.10;0.10;;;7.10;99.90;;;;;;5094091;28;20024;-77
2023/03/20 01:39:13;;;;;;;0.10;0.10;;;7.10;99.90;;;;;;5091537;28;20127;-76
2023/03/20 01:41:39;;;;;;;0.10;0.10;;;7.00;99.90;;;;;;5086468;28;20499;-75
2023/03/20 01:44:28;;;;;;;0.15;0.15;;;7.00;99.90;;;;;;5070085;28;20106;-76
2023/03/20 01:46:54;;;;;;;0.10;0.10;;;7.10;99.90;;;;;;5087813;28;20035;-76
2023/03/20 01:49:20;;;;;;;0.38;0.38;;;7.10;99.90;;;;;;5089576;28;20043;-76
2023/03/20 01:51:49;;;;;;;0.10;0.10;;;7.10;99.90;;;;;;5088335;28;20407;-77
2023/03/20 01:54:36;;;;;;;0.00;0.00;;;7.10;99.90;;;;;;5089485;28;20044;-75
2023/03/20 01:57:14;;;;;;;0.05;0.05;;;7.20;99.90;;;;;;5071635;28;20016;-76
2023/03/20 02:00:02;;;;;;;0.10;0.10;;;7.10;99.90;;;;;;5071855;28;20091;-75
2023/03/20 02:02:30;;;;;;;0.68;0.68;;;7.00;99.90;;;;;;5092707;28;20020;-76
2023/03/20 02:05:04;;;;;;;0.10;0.10;;;7.00;99.90;;;;;;5074931;28;20032;-76
2023/03/20 02:07:32;;;;;;;0.00;0.00;;;7.00;99.90;;;;;;5093346;28;20028;-77
2023/03/20 02:10:00;;;;;;;0.00;0.00;;;7.10;99.90;;;;;;5093919;28;20040;-76
2023/03/20 02:12:26;;;;;;;0.10;0.10;;;;;;;;;;5092055;28;20099;-76
2023/03/20 02:14:52;;;;;;;0.10;0.10;;;;;;;;;;5086604;28;20032;-75
2023/03/20 02:17:19;;;;;;;0.10;0.10;;;;;;;;;;5085449;28;20020;-77
2023/03/20 02:19:56;;;;;;;0.10;0.10;;;6.50;99.90;;;;;;5071510;28;20038;-76
2023/03/20 02:22:44;;;;;;;0.10;0.10;;;6.90;99.90;;;;;;5081613;28;20016;-76
2023/03/20 02:25:25;;;;;;;0.10;0.10;;;6.90;99.90;;;;;;5077673;28;20488;-75
2023/03/20 02:28:00;;;;;;;0.47;0.47;;;6.80;99.90;;;;;;5085342;28;20089;-76
2023/03/20 02:30:44;;;;;;;0.10;0.10;;;6.80;99.90;;;;;;5084911;28;20030;-76
2023/03/20 02:33:40;;;;;;;0.10;0.10;;;6.80;99.90;;;;;;5087137;28;20561;-76
2023/03/20 02:36:09;;;;;;;0.85;0.85;;;6.80;99.90;;;;;;5084964;28;20177;-76
2023/03/20 02:38:56;;;;;;;0.10;0.10;;;6.80;99.90;;;;;;5084938;28;20098;-76
2023/03/20 02:41:32;;;;;;;0.10;0.10;;;6.80;99.90;;;;;;5084828;28;20024;-76
2023/03/20 02:44:13;;;;;;;0.20;0.20;;;6.70;99.90;;;;;;5084307;28;20100;-76
2023/03/20 02:47:13;;;;;;;0.32;0.32;;;6.70;99.90;;;;;;5065638;28;20020;-76
2023/03/20 02:50:26;;;;;;;0.15;0.15;;;6.70;99.90;;;;;;5084012;28;20023;-76
2023/03/20 02:53:11;;;;;;;0.10;0.10;;;6.70;99.90;;;;;;5084258;28;20024;-76
2023/03/20 02:55:54;;;;;;;0.10;0.10;;;6.70;99.90;;;;;;5083441;28;20044;-76
2023/03/20 02:58:37;;;;;;;0.10;0.10;;;6.60;99.90;;;;;;5084048;28;20047;-75
2023/03/20 03:01:13;;;;;;;0.10;0.10;;;6.60;99.90;;;;;;5084248;28;20063;-76
2023/03/20 03:03:49;;;;;;;0.10;0.10;;;6.50;99.90;;;;;;5085344;28;20661;-75
2023/03/20 03:06:30;;;;;;;0.10;0.10;;;6.60;99.90;;;;;;5067176;28;20081;-76
2023/03/20 03:09:23;;;;;;;0.10;0.10;;;6.50;99.90;;;;;;5084821;28;20073;-76
2023/03/20 03:11:56;;;;;;;0.10;0.10;;;6.60;99.90;;;;;;5084528;28;20032;-76
2023/03/20 03:14:42;;;;;;;0.10;0.10;;;6.80;99.90;;;;;;5082557;28;20032;-76
2023/03/20 03:17:11;;;;;;;0.13;0.13;;;6.60;99.90;;;;;;5083183;28;20293;-76
2023/03/20 03:19:41;;;;;;;1.10;1.10;;;6.60;99.90;;;;;;5063957;28;20214;-76
2023/03/20 03:22:07;;;;;;;0.10;0.10;;;6.80;99.90;;;;;;5083372;28;20081;-77
2023/03/20 03:24:41;;;;;;;0.03;0.03;;;6.60;99.90;;;;;;5065552;28;20028;-76
2023/03/20 03:27:30;;;;;;;0.20;0.20;;;6.80;99.90;;;;;;5082626;28;20024;-76
2023/03/20 03:30:00;;;;;;;0.10;0.10;;;7.00;99.90;;;;;;5083657;28;20031;-75
2023/03/20 03:32:45;;;;;;;0.10;0.10;;;7.10;99.90;;;;;;5083446;28;20024;-76
2023/03/20 03:35:16;;;;;;;0.10;0.10;;;6.80;99.90;;;;;;5089561;28;20024;-75
2023/03/20 03:38:00;;;;;;;0.10;0.10;;;6.60;99.90;;;;;;5099292;28;20066;-76
2023/03/20 03:41:23;;;;;;;0.10;0.10;;;6.40;99.90;;;;;;5099485;28;20028;-76
2023/03/20 03:44:07;;;;;;;0.10;0.10;;;8.40;99.90;;;;;;5057962;28;20328;-76
2023/03/20 03:47:14;;;;;;;0.10;0.10;;;6.50;99.90;;;;;;5036546;28;20140;-76
2023/03/20 03:49:46;;;;;;;0.10;0.10;;;6.50;99.90;;;;;;5051598;28;20025;-76
2023/03/20 03:52:21;;;;;;;0.10;0.10;;;6.50;99.90;;;;;;5039086;28;20039;-76
2023/03/20 03:55:01;;;;;;;0.10;0.10;;;6.50;99.90;;;;;;5040086;28;20041;-75
2023/03/20 03:57:41;;;;;;;0.10;0.10;;;6.40;99.90;;;;;;5039958;28;20029;-76
2023/03/20 04:00:10;;;;;;;0.10;0.10;;;6.50;99.90;;;;;;5040232;28;20261;-76
2023/03/20 04:02:37;;;;;;;2.85;2.75;;;6.50;99.90;;;;;;5038641;28;20724;-75
2023/03/20 04:05:06;;;;;;;0.10;0.10;;;6.60;99.90;;;;;;5040132;28;20083;-76
2023/03/20 04:07:31;;;;;;;0.08;0.08;;;6.60;99.90;;;;;;5039818;28;20108;-76
2023/03/20 04:09:57;;;;;;;7.25;6.93;;;6.60;99.90;;;;;;5040798;28;20611;-76
2023/03/20 04:12:39;;;;;;;0.10;0.10;;;6.60;99.90;;;;;;5041317;28;20032;-77
2023/03/20 04:15:05;;;;;;;0.10;0.10;;;6.60;99.90;;;;;;5039297;28;20044;-76
2023/03/20 04:17:32;;;;;;;0.10;0.10;;;6.60;99.90;;;;;;5045072;28;20457;-76
2023/03/20 04:19:58;;;;;;;0.10;0.10;;;6.60;99.90;;;;;;5082672;28;20023;-76
2023/03/20 04:22:24;;;;;;;0.08;0.08;;;6.60;99.90;;;;;;5083201;28;20050;-76
2023/03/20 04:24:50;;;;;;;0.03;0.03;;;6.60;99.90;;;;;;5064214;28;20117;-76
2023/03/20 04:27:16;;;;;;;0.10;0.10;;;6.60;99.90;;;;;;5082456;28;20055;-76
2023/03/20 04:29:43;;;;;;;0.20;0.20;;;6.60;99.90;;;;;;5082432;28;20081;-76
2023/03/20 04:32:09;;;;;;;0.10;0.10;;;6.50;99.90;;;;;;5082129;28;20024;-77
2023/03/20 04:34:34;;;;;;;0.25;0.25;;;6.50;99.90;;;;;;5082765;28;20028;-76
2023/03/20 04:37:01;;;;;;;0.20;0.20;;;6.50;99.90;;;;;;5075168;28;20487;-77
2023/03/20 04:39:27;;;;;;;0.10;0.10;;;6.40;99.90;;;;;;5096580;28;20289;-77
2023/03/20 04:41:52;;;;;;;0.10;0.10;;;6.40;99.90;;;;;;5096040;28;20055;-78
2023/03/20 04:44:18;;;;;;;0.10;0.10;;;6.40;99.90;;;;;;5095611;28;20348;-76
2023/03/20 04:46:45;;;;;;;0.10;0.10;;;6.40;99.90;;;;;;5078648;28;20365;-76
2023/03/20 04:49:11;;;;;;;0.15;0.15;;;6.40;99.90;;;;;;5090652;28;20024;-76
2023/03/20 04:51:37;;;;;;;0.10;0.10;;;;;;;;;;5063934;28;20030;-76
2023/03/20 04:54:03;;;;;;;0.10;0.10;;;6.30;99.90;;;;;;5081203;28;20123;-76
2023/03/20 04:56:29;;;;;;;0.10;0.10;;;6.30;99.90;;;;;;5047645;28;20081;-76
2023/03/20 04:58:56;;;;;;;0.10;0.10;;;6.30;99.90;;;;;;5081993;28;20457;-76
2023/03/20 05:01:22;;;;;;;0.10;0.10;;;6.20;99.90;;;;;;5064155;28;20043;-76
2023/03/20 05:03:48;;;;;;;0.10;0.10;;;6.20;99.90;;;;;;5083388;28;20205;-76
2023/03/20 05:06:14;;;;;;;0.10;0.10;;;8.20;99.90;;;;;;5091986;28;20032;-76
2023/03/20 05:08:39;;;;;;;0.10;0.10;;;6.60;99.90;;;;;;5101426;28;20024;-76
2023/03/20 05:11:07;;;;;;;2.67;2.58;;;6.20;99.90;;;;;;5100798;28;20083;-76
2023/03/20 05:13:32;;;;;;;0.40;0.40;;;6.20;99.90;;;;;;5098881;28;20036;-76
2023/03/20 05:15:58;;;;;;;0.10;0.10;;;6.20;99.90;;;;;;5100280;28;20043;-77
2023/03/20 05:18:24;;;;;;;0.10;0.10;;;6.10;99.90;;;;;;5100360;28;20021;-76
2023/03/20 05:20:55;;;;;;;0.10;0.10;;;6.10;99.90;;;;;;5103573;28;20024;-77
2023/03/20 05:23:22;;;;;;;0.10;0.10;;;6.10;99.90;;;;;;5101830;28;20206;-76
2023/03/20 05:25:51;;;;;;;0.10;0.10;;;6.10;99.90;;;;;;5104193;28;20241;-76
2023/03/20 05:28:37;;;;;;;0.10;0.10;;;6.10;99.90;;;;;;5106006;28;20035;-76
2023/03/20 05:31:03;;;;;;;0.10;0.10;;;6.20;99.90;;;;;;5102232;28;20084;-76
2023/03/20 05:33:29;;;;;;;0.08;0.08;;;;;;;;;;5077608;28;20077;-76
2023/03/20 05:35:57;;;;;;;0.10;0.10;;;;;;;;;;5090321;28;20056;-76
2023/03/20 05:38:24;;;;;;;0.15;0.15;;;6.30;99.90;;;;;;5088876;28;20059;-79
2023/03/20 05:41:03;;;;;;;0.10;0.10;;;6.30;99.90;;;;;;5072287;28;20028;-77
2023/03/20 05:43:30;;;;;;;0.08;0.08;;;6.60;99.90;;;;;;5088087;28;20032;-76
2023/03/20 05:45:57;;;;;;;0.10;0.10;;;;;;;;;;5091262;28;20073;-76
2023/03/20 05:48:24;;;;;;;0.20;0.20;;;6.50;99.90;;;;;;5089736;28;20093;-76
2023/03/20 05:50:50;;;;;;;0.10;0.10;;;6.60;99.90;;;;;;5091203;28;20118;-77
2023/03/20 05:53:24;;;;;;;0.10;0.10;;;6.60;99.90;;;;;;5092398;28;20035;-76
2023/03/20 05:55:50;;;;;;;0.10;0.10;;;;;;;;;;5090296;28;20074;-75
2023/03/20 05:58:16;;;;;;;0.10;0.10;;;;;;;;;;5097913;28;20097;-76
2023/03/20 06:00:42;;;;;;;0.10;0.10;;;;;;;;;;5095732;28;20030;-77
2023/03/20 06:03:08;;;;;;;0.10;0.10;;;6.90;99.90;;;;;;5092749;28;20039;-76
2023/03/20 06:05:36;;;;;;;0.10;0.10;;;7.00;99.90;;;;;;5094732;28;20692;-76
2023/03/20 06:08:02;;;;;;;0.03;0.03;;;;;;;;;;5095602;28;20047;-77
2023/03/20 06:10:32;;;;;;;0.10;0.10;;;7.10;99.90;;;;;;5107346;28;20088;-75
2023/03/20 06:12:59;;;;;;;0.10;0.10;;;7.70;99.90;;;;;;5100618;28;20346;-76
2023/03/20 06:15:39;;;;;;;0.00;0.00;;;7.30;99.90;;;;;;5103125;28;20116;-76
2023/03/20 06:18:05;;;;;;;0.10;0.10;;;7.60;99.90;;;;;;5082882;28;20451;-75
2023/03/20 06:20:30;;;;;;;0.00;0.00;;;7.70;99.90;;;;;;5083513;28;20052;-76
2023/03/20 06:22:56;;;;;;;0.10;0.10;;;;;;;;;;5103460;28;20078;-77
2023/03/20 06:25:23;;;;;;;0.00;0.00;;;;;;;;;;5106609;28;20024;-76
2023/03/20 06:27:49;;;;;;;0.00;0.00;;;7.90;99.90;;;;;;5091932;28;20012;-77
2023/03/20 06:30:24;;;;;;;0.00;0.00;;;8.00;99.90;;;;;;5102520;28;20471;-77
2023/03/20 06:32:50;;;;;;;0.10;0.10;;;;;;;;;;5102414;28;20025;-76
2023/03/20 06:35:20;;;;;;;0.08;0.08;;;8.70;99.90;;;;;;5101461;28;20051;-76
2023/03/20 06:37:46;;;;;;;0.05;0.05;;;;;;;;;;5100480;28;20074;-76
2023/03/20 06:40:16;;;;;;;0.00;0.00;;;8.50;99.90;;;;;;5107241;28;20248;-77
2023/03/20 06:42:42;;;;;;;0.30;0.30;;;9.10;99.90;;;;;;5107756;28;20039;-77
2023/03/20 06:45:15;;;;;;;0.22;0.22;;;8.80;99.90;;;;;;5110096;28;20016;-77
2023/03/20 06:47:41;;;;;;;0.10;0.10;;;9.40;99.90;;;;;;5092926;27;20020;-77
2023/03/20 06:50:13;;;;;;;0.30;0.30;;;9.10;99.90;;;;;;5094239;28;20583;-76
2023/03/20 06:52:39;;;;;;;0.03;0.03;;;9.30;99.90;;;;;;5098529;28;20103;-76
2023/03/20 06:55:06;;;;;;;0.10;0.10;;;9.70;99.90;;;;;;5076803;28;20036;-77
2023/03/20 06:57:33;;;;;;;0.00;0.00;;;9.60;99.90;;;;;;5075273;28;20024;-76
2023/03/20 07:00:05;;;;;;;0.00;0.00;;;9.60;99.90;;;;;;5093954;28;20024;-76
2023/03/20 07:02:31;;;;;;;0.10;0.10;;;9.80;99.90;;;;;;5093391;28;20444;-77
2023/03/20 07:04:57;;;;;;;0.28;0.28;;;7.00;99.90;;;;;;5094267;28;20052;-76
2023/03/20 07:07:23;;;;;;;0.03;0.03;;;9.90;99.90;;;;;;5094938;28;20028;-76
2023/03/20 07:09:50;;;;;;;2.15;2.05;;;10.00;99.90;;;;;;5093328;28;20475;-77
2023/03/20 07:12:18;;;;;;;0.00;0.00;;;10.10;99.90;;;;;;5091564;28;20051;-76
2023/03/20 07:14:45;;;;;;;0.10;0.10;;;10.20;99.90;;;;;;5090853;28;20036;-76
2023/03/20 07:17:12;;;;;;;0.00;0.00;;;10.30;99.90;;;;;;5071207;28;20025;-76
2023/03/20 07:19:39;;;;;;;25.98;12.07;;;10.40;99.90;;;;;;5089210;28;20495;-77
2023/03/20 07:22:07;;;;;;;0.10;0.10;;;11.00;99.90;;;;;;5069947;28;20032;-78
2023/03/20 07:24:36;;;;;;;0.00;0.00;;;10.70;99.60;;;;;;5088588;28;20422;-77
2023/03/20 07:27:03;;;;;;;0.00;0.00;;;10.90;99.90;;;;;;5087061;28;20644;-77
2023/03/20 07:29:29;;;;;;;1.00;1.00;;;11.10;99.60;;;;;;5090054;28;20020;-77
2023/03/20 07:31:54;;;;;;;0.00;0.00;;;11.20;99.80;;;;;;5085935;28;20673;-78
2023/03/20 07:34:21;;;;;;;0.00;0.00;;;11.40;98.10;;;;;;5084621;28;20067;-77
2023/03/20 07:36:46;;;;;;;0.10;0.10;;;11.60;96.80;;;;;;5084822;28;20418;-76
2023/03/20 07:39:13;;;;;;;0.10;0.10;;;11.80;96.50;;;;;;5083155;28;20123;-77
2023/03/20 07:41:39;;;;;;;0.10;0.10;;;12.00;95.00;;;;;;5081167;28;20261;-78
2023/03/20 07:44:07;;;;;;;0.10;0.10;;;;;;;;;;5062462;28;20123;-84
2023/03/20 07:46:33;;;;;;;0.30;0.30;;;12.10;93.90;;;;;;5062266;28;20529;-83
2023/03/20 07:48:58;;;;;;;2.13;2.03;;;12.60;93.70;;;;;;5069375;28;20222;-81
2023/03/20 07:51:25;;;;;;;0.00;0.00;;;9.70;91.70;;;;;;5096115;28;20075;-79
2023/03/20 07:53:50;;;;;;;0.10;0.10;;;12.20;93.00;;;;;;5096094;28;20036;-78
2023/03/20 07:56:16;;;;;;;0.10;0.10;;;13.00;93.50;;;;;;5085518;28;20132;-77
2023/03/20 07:58:44;;;;;;;0.10;0.10;;;12.60;92.50;;;;;;5064405;28;20027;-76
2023/03/20 08:01:10;;;;;;;0.10;0.10;;;12.80;90.90;;;;;;5081652;28;20662;-77
2023/03/20 08:03:37;;;;;;;4.53;4.10;;;13.30;90.20;;;;;;5083430;28;20044;-77
2023/03/20 08:06:05;;;;;;;3.25;3.05;;;13.00;88.70;;;;;;5063946;28;20043;-77
2023/03/20 08:08:31;;;;;;;0.77;0.77;;;13.20;86.40;;;;;;5064429;28;20036;-77
2023/03/20 08:10:56;;;;;;;0.10;0.10;;;13.30;85.80;;;;;;5082062;28;20027;-78
2023/03/20 08:13:22;;;;;;;0.90;0.90;;;13.20;84.00;;;;;;5079989;28;20073;-82
2023/03/20 08:15:48;;;;;;;9.23;6.32;;;13.30;84.50;;;;;;5079934;28;20275;-78
2023/03/20 08:18:14;;;;;;;0.22;0.22;;;13.50;83.40;;;;;;5080214;28;20026;-78
2023/03/20 08:20:40;;;;;;;0.85;0.85;;;13.60;82.70;;;;;;5079666;28;20548;-81
2023/03/20 08:23:06;;;;;;;0.65;0.65;;;13.70;81.00;;;;;;5080288;28;20024;-80
2023/03/20 08:25:33;;;;;;;0.80;0.80;;;13.80;81.40;;;;;;5061670;28;20099;-85
2023/03/20 08:28:02;;;;;;;0.20;0.20;;;13.80;81.90;;;;;;5061752;28;20784;-78
2023/03/20 08:30:28;;;;;;;0.57;0.57;;;14.00;80.90;;;;;;5079778;28;20020;-80
2023/03/20 08:32:54;;;;;;;0.10;0.10;;;13.90;80.00;;;;;;5078229;28;20572;-77
2023/03/20 08:35:20;;;;;;;0.10;0.10;;;13.70;82.20;;;;;;5079004;28;20040;-79
2023/03/20 08:37:46;;;;;;;0.20;0.20;;;;;;;;;;5078120;28;20131;-77
2023/03/20 08:40:12;;;;;;;1.15;1.13;;;13.80;78.30;;;;;;5059877;28;20119;-80
2023/03/20 08:42:38;;;;;;;0.20;0.20;;;13.80;79.90;;;;;;5060614;28;20079;-81
2023/03/20 08:45:04;;;;;;;6.30;5.78;;;13.80;81.80;;;;;;5078383;28;20538;-77
2023/03/20 08:47:30;;;;;;;0.45;0.45;;;13.80;80.00;;;;;;5060657;28;20136;-76
2023/03/20 08:49:56;;;;;;;0.10;0.10;;;13.90;78.80;;;;;;5061044;28;20035;-84
2023/03/20 08:52:22;;;;;;;1.20;0.70;;;;;;;;;;5079146;28;20655;-81
2023/03/20 08:54:48;;;;;;;0.22;0.22;;;14.00;76.90;;;;;;5080880;28;20616;-79
2023/03/20 08:57:14;;;;;;;2.58;2.38;;;14.60;78.90;;;;;;5084195;28;20069;-77
2023/03/20 08:59:40;;;;;;;2.30;2.20;;;14.30;77.10;;;;;;5066443;28;20118;-79
2023/03/20 09:02:06;;;;;;;2.25;2.15;;;14.20;77.70;;;;;;5068372;28;20411;-78
2023/03/20 09:04:31;;;;;;;0.20;0.20;;;15.20;77.80;;;;;;5081641;28;20028;-77
2023/03/20 09:07:00;;;;;;;0.10;0.10;;;14.60;76.70;;;;;;5080374;28;20051;-84
2023/03/20 09:09:28;;;;;;;0.30;0.30;;;14.50;75.40;;;;;;5083907;28;20229;-85
2023/03/20 09:11:55;;;;;;;0.30;0.30;;;14.50;75.60;;;;;;5062748;28;20692;-78
2023/03/20 09:14:22;;;;;;;0.17;0.17;;;14.60;74.50;;;;;;5082349;28;20089;-81
2023/03/20 09:16:48;;;;;;;11.07;9.13;;;14.60;74.40;;;;;;5080766;28;20016;-79
2023/03/20 09:19:14;;;;;;;0.45;0.45;;;14.70;74.40;;;;;;5061667;28;20024;-77
2023/03/20 09:21:40;;;;;;;0.20;0.20;;;14.70;74.10;;;;;;5081795;28;20066;-88
2023/03/20 09:24:06;;;;;;;1.10;1.10;;;14.90;74.40;;;;;;5081441;28;20048;-89
2023/03/20 09:26:32;;;;;;;0.65;0.65;;;15.00;75.10;;;;;;5082899;28;20065;-87
2023/03/20 09:28:58;;;;;;;0.10;0.10;;;15.20;73.10;;;;;;5082815;28;20099;-86
2023/03/20 09:31:24;;;;;;;6.50;5.93;;;15.70;73.50;;;;;;5079934;28;20020;-83
2023/03/20 09:33:50;;;;;;;0.20;0.20;;;15.40;72.60;;;;;;5081744;28;20058;-84
2023/03/20 09:36:15;;;;;;;0.82;0.82;;;15.70;72.60;;;;;;5080358;28;20184;-88
2023/03/20 09:38:41;;;;;;;0.28;0.28;;;15.90;72.80;;;;;;5080452;28;20047;-80
2023/03/20 09:41:19;;;;;;;0.25;0.25;;;16.00;71.10;;;;;;5080954;28;20047;-80
2023/03/20 09:43:44;;;;;;;4.05;3.75;;;16.30;69.60;;;;;;5079650;28;20633;-87
2023/03/20 09:47:02;;;;;;;0.75;0.75;;;16.40;67.50;;;;;;5062021;28;20024;-85
2023/03/20 09:49:38;;;;;;;0.10;0.10;;;16.50;68.00;;;;;;5036494;28;20037;-84
2023/03/20 09:52:27;;;;;;;32.65;2.05;;;16.50;68.50;;;;;;5034987;28;20162;-80
2023/03/20 09:55:01;;;;;;;0.20;0.20;;;16.20;67.70;;;;;;5036121;28;20396;-84
2023/03/20 09:57:55;;;;;;;0.52;0.52;;;16.40;67.00;;;;;;5035833;28;20071;-80
2023/03/20 10:00:27;;;;;;;0.10;0.10;;;16.50;66.90;;;;;;5035901;28;20025;-81
2023/03/20 10:03:00;;;;;;;1.00;1.00;;;16.50;66.90;;;;;;5036211;28;20064;-84
2023/03/20 10:05:41;;;;;;;0.35;0.35;;;16.60;66.40;;;;;;5021396;28;20045;-77
2023/03/20 10:08:15;;;;;;;0.10;0.10;;;16.70;66.30;;;;;;5040994;28;20041;-84
2023/03/20 10:10:47;;;;;;;1.90;1.10;;;16.70;65.80;;;;;;5025720;28;20032;-83
2023/03/20 10:13:36;;;;;;;0.13;0.13;;;16.60;66.10;;;;;;5021713;28;20124;-81
2023/03/20 10:16:16;;;;;;;15.10;14.00;;;16.70;66.40;;;;;;5036900;28;20099;-81
2023/03/20 10:19:08;;;;;;;0.20;0.20;;;16.70;65.80;;;;;;5018529;28;20097;-76
2023/03/20 10:21:43;;;;;;;0.65;0.65;;;16.60;66.10;;;;;;5035621;28;20021;-76
2023/03/20 10:24:27;;;;;;;1.15;1.10;;;16.80;65.30;;;;;;5044433;28;20024;-76
2023/03/20 10:26:54;;;;;;;0.20;0.20;;;17.10;65.00;;;;;;5077448;28;20017;-83
2023/03/20 10:29:57;;;;;;;0.90;0.90;;;17.40;64.60;;;;;;5076952;28;20085;-81
2023/03/20 10:32:37;;;;;;;0.10;0.10;;;17.70;64.40;;;;;;5076745;28;20208;-75
2023/03/20 10:35:25;;;;;;;0.20;0.20;;;18.00;63.00;;;;;;5061871;28;20036;-85
2023/03/20 10:38:11;;;;;;;0.35;0.35;;;17.60;61.40;;;;;;5079389;28;20036;-83
2023/03/20 10:40:41;;;;;;;0.63;0.63;;;18.20;61.50;;;;;;5078499;28;20020;-81
2023/03/20 10:43:10;;;;;;;0.20;0.20;;;18.10;60.50;;;;;;5078786;28;20103;-77
2023/03/20 10:45:42;;;;;;;0.47;0.45;;;18.20;60.30;;;;;;5064549;28;20024;-83
2023/03/20 10:48:18;;;;;;;4.10;3.80;;;18.20;60.00;;;;;;5081005;28;20253;-82
2023/03/20 10:50:51;;;;;;;2.13;2.03;;;18.50;60.20;;;;;;5081286;28;20533;-78
2023/03/20 10:53:45;;;;;;;1.05;1.02;;;18.70;60.20;;;;;;5081953;28;20228;-80
2023/03/20 10:56:20;;;;;;;;;;;18.90;58.80;;;;;;5062558;28;20420;-76
2023/03/20 10:58:49;;;;;;;2.95;2.75;;;18.90;58.80;;;;;;5080637;28;19908;-84
2023/03/20 11:01:15;;;;;;;0.22;0.22;;;18.60;58.90;;;;;;5080134;28;20035;-78
2023/03/20 11:03:41;;;;;;;0.38;0.38;;;18.80;58.80;;;;;;5079803;28;20020;-76
2023/03/20 11:06:24;;;;;;;0.47;0.47;;;19.30;58.10;;;;;;5080225;28;20430;-76
2023/03/20 11:08:51;;;;;;;0.13;0.13;;;19.00;56.80;;;;;;5080414;28;20036;-78
2023/03/20 11:11:26;;;;;;;0.50;0.50;;;19.60;57.30;;;;;;5080979;28;20035;-79
2023/03/20 11:13:53;;;;;;;1.17;1.17;;;18.70;55.20;;;;;;5081450;28;20495;-86
2023/03/20 11:16:31;;;;;;;7.07;6.65;;;19.70;57.20;;;;;;5062983;28;20032;-85
2023/03/20 11:19:05;;;;;;;0.10;0.10;;;17.30;54.00;;;;;;5081257;28;20471;-77
2023/03/20 11:21:32;;;;;;;1.25;1.15;;;17.90;53.70;;;;;;5063309;28;20047;-86
2023/03/20 11:24:00;;;;;;;0.50;0.50;;;19.40;54.60;;;;;;5082236;28;20031;-81
2023/03/20 11:26:40;;;;;;;0.10;0.10;;;19.60;54.50;;;;;;5080868;28;20047;-77
2023/03/20 11:29:15;;;;;;;1.40;1.30;;;19.60;56.50;;;;;;5079996;28;20023;-78
2023/03/20 11:31:41;;;;;;;0.10;0.10;;;19.50;54.50;;;;;;5080340;28;20047;-78
2023/03/20 11:34:24;;;;;;;0.10;0.10;;;19.90;56.40;;;;;;5080333;28;20556;-77
2023/03/20 11:36:59;;;;;;;0.57;0.52;;;19.50;54.70;;;;;;5061933;28;20077;-81
2023/03/20 11:39:28;;;;;;;0.50;0.50;;;19.60;53.40;;;;;;5061234;28;20542;-75
2023/03/20 11:41:56;;;;;;;0.30;0.30;;;19.60;53.50;;;;;;5061390;28;20317;-76
2023/03/20 11:44:41;;;;;;;0.52;0.45;;;19.50;53.60;;;;;;5061598;28;20085;-84
2023/03/20 11:47:24;;;;;;;0.10;0.10;;;20.20;54.50;;;;;;5079743;28;20093;-77
2023/03/20 11:49:56;;;;;;;0.17;0.17;;;19.50;53.80;;;;;;5061692;28;20530;-75
2023/03/20 11:52:31;;;;;;;0.10;0.10;;;19.70;54.90;;;;;;5061952;28;20499;-77
2023/03/20 11:55:00;;;;;;;0.10;0.10;;;20.70;54.10;;;;;;5081392;28;20063;-77
2023/03/20 11:57:39;;;;;;;0.98;0.77;;;23.50;54.10;;;;;;5061514;28;20039;-77
2023/03/20 12:00:10;;;;;;;5.63;5.38;;;21.10;52.40;;;;;;5078882;28;20020;-76
2023/03/20 12:02:42;;;;;;;0.40;0.40;;;21.20;51.20;;;;;;5078717;28;20055;-76
2023/03/20 12:05:19;;;;;;;1.75;1.65;;;21.40;51.20;;;;;;5079226;28;20032;-77
2023/03/20 12:07:47;;;;;;;2.35;1.23;;;21.60;51.00;;;;;;5078720;28;20028;-76
2023/03/20 12:10:14;;;;;;;1.10;0.88;;;21.30;51.20;;;;;;5079157;28;20076;-76
2023/03/20 12:12:49;;;;;;;0.10;0.10;;;21.50;50.90;;;;;;5079879;28;20027;-83
2023/03/20 12:15:17;;;;;;;0.45;0.45;;;21.60;50.80;;;;;;5062344;28;20066;-82
2023/03/20 12:18:09;;;;;;;0.05;0.05;;;18.90;49.60;;;;;;5062168;28;20082;-81
2023/03/20 12:20:42;;;;;;;0.00;0.00;;;21.40;50.40;;;;;;5081466;28;20026;-77
2023/03/20 12:23:08;;;;;;;0.20;0.20;;;21.30;50.70;;;;;;5084171;28;20047;-81
2023/03/20 12:25:59;;;;;;;0.15;0.15;;;21.10;51.20;;;;;;5084918;28;20012;-77
2023/03/20 12:28:27;;;;;;;0.95;0.93;;;20.70;50.30;;;;;;5084530;28;20031;-82
2023/03/20 12:31:20;;;;;;;0.10;0.10;;;20.70;50.70;;;;;;5081085;28;20023;-80
2023/03/20 12:34:22;;;;;;;1.15;1.10;;;20.80;50.70;;;;;;5080387;28;20028;-81
2023/03/20 12:36:51;;;;;;;2.17;2.05;;;21.10;50.70;;;;;;5080859;28;20474;-80
2023/03/20 12:39:23;;;;;;;0.65;0.65;;;21.20;51.40;;;;;;5080041;28;20048;-79
2023/03/20 12:42:08;;;;;;;0.20;0.20;;;21.40;50.20;;;;;;5062760;28;20020;-88
2023/03/20 12:45:04;;;;;;;0.68;0.60;;;21.60;49.50;;;;;;5062405;28;20024;-87
2023/03/20 12:48:08;;;;;;;0.28;0.28;;;22.00;49.80;;;;;;5061528;28;20491;-85
2023/03/20 12:50:51;;;;;;;2.95;1.25;;;21.80;48.80;;;;;;5079936;28;20020;-80
2023/03/20 12:53:48;;;;;;;0.38;0.25;;;21.80;48.00;;;;;;5080884;28;20115;-83
2023/03/20 12:56:55;;;;;;;0.00;0.00;;;21.80;46.80;;;;;;5062190;28;20027;-79
2023/03/20 12:59:26;;;;;;;0.10;0.10;;;23.40;46.60;;;;;;5080826;28;20027;-81
2023/03/20 13:02:42;;;;;;;0.10;0.10;;;21.40;46.20;;;;;;5080409;28;20502;-80
2023/03/20 13:05:32;;;;;;;0.10;0.10;;;21.10;46.10;;;;;;5042199;28;20462;-82
2023/03/20 13:08:00;;;;;;;0.20;0.20;;;20.90;46.30;;;;;;5029650;28;20033;-78
2023/03/20 13:10:42;;;;;;;0.10;0.10;;;20.90;46.90;;;;;;5047527;28;20262;-87
2023/03/20 13:13:29;;;;;;;0.32;0.32;;;20.80;47.00;;;;;;5045551;28;20029;-78
2023/03/20 13:16:25;;;;;;;0.30;0.30;;;20.70;47.90;;;;;;5047522;28;20075;-81
2023/03/20 13:19:09;;;;;;;0.10;0.10;;;20.60;48.50;;;;;;5048017;28;20021;-80
2023/03/20 13:21:55;;;;;;;0.20;0.20;;;20.40;48.60;;;;;;5038599;28;20035;-82
2023/03/20 13:24:38;;;;;;;0.20;0.20;;;20.40;48.80;;;;;;5019952;28;20523;-80
2023/03/20 13:27:37;;;;;;;0.28;0.28;;;20.30;48.90;;;;;;5035842;28;20055;-77
2023/03/20 13:30:17;;;;;;;0.20;0.20;;;20.10;49.20;;;;;;5018931;28;20128;-84